Time;durP1;ratioP1;P1;durP2;ratioP2;P2;SDS_P1;SDS_P2;PMS_P1;PMS_P2;Temp;Humidity;BMP_temperature;BMP_pressure;BME280_temperature;BME280_humidity;BME280_pressure;Samples;Min_cycle;Max_cycle;Signal;HPM_P1;HPM_P2
2021/08/22 00:00:37;;;;;;;3.53;2.70;;;;;;;;;;3568747;40;20036;-67
2021/08/22 00:03:03;;;;;;;4.32;2.92;;;;;;;;;;3567142;40;20041;-67
2021/08/22 00:05:29;;;;;;;4.00;2.70;;;;;;;;;;3566056;40;20029;-68
2021/08/22 00:07:55;;;;;;;3.90;2.42;;;;;;;;;;3565721;40;20037;-67
2021/08/22 00:10:21;;;;;;;3.95;2.88;;;;;;;;;;3564706;40;20041;-67
2021/08/22 00:12:46;;;;;;;5.30;2.63;;;18.20;99.90;;;;;;3563887;40;20053;-67
2021/08/22 00:15:12;;;;;;;5.82;2.72;;;;;;;;;;3563328;40;20033;-67
2021/08/22 00:17:38;;;;;;;4.53;2.97;;;;;;;;;;3561726;40;20066;-68
2021/08/22 00:20:04;;;;;;;4.75;2.40;;;;;;;;;;3562613;40;20037;-68
2021/08/22 00:22:30;;;;;;;6.50;2.58;;;;;;;;;;3563828;40;20032;-68
2021/08/22 00:24:56;;;;;;;4.13;2.53;;;;;;;;;;3568061;40;20222;-67
2021/08/22 00:27:22;;;;;;;5.53;2.60;;;;;;;;;;3564787;40;20029;-67
2021/08/22 00:29:48;;;;;;;4.35;2.65;;;;;;;;;;3565914;40;20056;-67
2021/08/22 00:32:14;;;;;;;4.68;2.78;;;;;;;;;;3567968;40;20026;-68
2021/08/22 00:34:40;;;;;;;5.43;2.55;;;;;;;;;;3566926;40;20106;-68
2021/08/22 00:37:06;;;;;;;4.00;2.50;;;;;;;;;;3568891;40;21056;-67
2021/08/22 00:39:32;;;;;;;7.97;2.80;;;;;;;;;;3570571;40;20041;-67
2021/08/22 00:41:58;;;;;;;9.75;2.70;;;;;;;;;;3563822;40;20025;-67
2021/08/22 00:44:24;;;;;;;3.78;2.67;;;;;;;;;;3563951;40;20081;-68
2021/08/22 00:46:50;;;;;;;6.95;2.75;;;;;;;;;;3562359;40;20041;-67
2021/08/22 00:49:16;;;;;;;3.40;2.50;;;;;;;;;;3563260;40;20567;-68
2021/08/22 00:51:42;;;;;;;4.13;2.60;;;;;;;;;;3564823;40;20038;-68
2021/08/22 00:54:08;;;;;;;3.78;2.67;;;;;;;;;;3566211;40;20055;-67
2021/08/22 00:56:34;;;;;;;10.50;3.00;;;;;;;;;;3566357;40;20410;-68
2021/08/22 00:59:00;;;;;;;4.22;2.80;;;;;;;;;;3567749;40;20528;-68
2021/08/22 01:01:26;;;;;;;5.97;2.65;;;;;;;;;;3565309;40;20029;-67
2021/08/22 01:03:52;;;;;;;3.85;2.60;;;;;;;;;;3564349;40;20041;-67
2021/08/22 01:06:18;;;;;;;3.72;2.63;;;;;;;;;;3569682;40;20037;-67
2021/08/22 01:08:44;;;;;;;5.20;3.00;;;;;;;;;;3571330;40;20126;-68
2021/08/22 01:11:10;;;;;;;3.58;2.60;;;;;;;;;;3571418;40;20075;-67
2021/08/22 01:13:36;;;;;;;6.30;3.08;;;;;;;;;;3570639;40;20048;-67
2021/08/22 01:16:02;;;;;;;4.85;2.83;;;;;;;;;;3569491;40;20602;-67
2021/08/22 01:18:28;;;;;;;5.45;2.60;;;;;;;;;;3567799;40;20085;-67
2021/08/22 01:20:54;;;;;;;5.90;3.10;;;;;;;;;;3567677;40;20030;-67
2021/08/22 01:23:20;;;;;;;5.30;3.13;;;;;;;;;;3566546;40;20080;-67
2021/08/22 01:25:46;;;;;;;6.28;2.75;;;;;;;;;;3564665;40;20033;-67
2021/08/22 01:28:12;;;;;;;4.82;2.88;;;;;;;;;;3564773;40;20041;-67
2021/08/22 01:30:38;;;;;;;5.97;2.80;;;;;;;;;;3563565;40;20033;-67
2021/08/22 01:33:04;;;;;;;3.75;2.70;;;;;;;;;;3563477;40;20034;-68
2021/08/22 01:35:31;;;;;;;4.85;3.17;;;;;;;;;;3562080;40;20322;-67
2021/08/22 01:37:57;;;;;;;5.45;3.05;;;;;;;;;;3561453;40;20207;-67
2021/08/22 01:40:23;;;;;;;5.13;2.83;;;;;;;;;;3563175;40;20730;-67
2021/08/22 01:42:49;;;;;;;4.63;2.78;;;;;;;;;;3563106;40;20527;-67
2021/08/22 01:45:15;;;;;;;4.20;2.42;;;;;;;;;;3564023;40;20303;-67
2021/08/22 01:47:41;;;;;;;6.32;3.03;;;;;;;;;;3564253;40;20662;-67
2021/08/22 01:50:07;;;;;;;6.15;3.47;;;;;;;;;;3566199;40;20347;-67
2021/08/22 01:52:33;;;;;;;5.35;3.00;;;;;;;;;;3566686;40;20041;-67
2021/08/22 01:54:59;;;;;;;5.35;2.97;;;;;;;;;;3568097;40;20081;-67
2021/08/22 01:57:25;;;;;;;3.92;2.50;;;;;;;;;;3562312;40;20112;-67
2021/08/22 01:59:51;;;;;;;6.20;2.92;;;;;;;;;;3561757;40;20399;-67
2021/08/22 02:02:17;;;;;;;5.50;3.10;;;;;;;;;;3559973;40;20041;-67
2021/08/22 02:04:43;;;;;;;5.22;3.08;;;;;;;;;;3567537;40;20045;-68
2021/08/22 02:07:09;;;;;;;7.75;3.20;;;;;;;;;;3561010;40;20040;-67
2021/08/22 02:09:35;;;;;;;5.65;2.85;;;;;;;;;;3563907;40;20052;-67
2021/08/22 02:12:01;;;;;;;6.53;2.92;;;;;;;;;;3565314;40;20403;-67
2021/08/22 02:14:26;;;;;;;4.57;3.10;;;16.90;99.90;;;;;;3565825;40;20026;-67
2021/08/22 02:16:52;;;;;;;6.90;2.90;;;;;;;;;;3566725;40;20130;-67
2021/08/22 02:19:18;;;;;;;4.38;3.15;;;;;;;;;;3563484;40;20040;-67
2021/08/22 02:21:44;;;;;;;5.85;2.97;;;;;;;;;;3563401;40;20331;-67
2021/08/22 02:24:10;;;;;;;7.63;2.97;;;;;;;;;;3563123;40;20502;-67
2021/08/22 02:26:36;;;;;;;5.50;3.00;;;;;;;;;;3560941;40;20077;-67
2021/08/22 02:29:02;;;;;;;4.15;2.60;;;;;;;;;;3560779;40;20116;-68
2021/08/22 02:31:29;;;;;;;6.47;3.08;;;;;;;;;;3562478;40;20037;-67
2021/08/22 02:33:55;;;;;;;6.97;2.97;;;;;;;;;;3563507;40;20567;-67
2021/08/22 02:36:21;;;;;;;4.93;2.83;;;;;;;;;;3564449;40;20048;-68
2021/08/22 02:38:47;;;;;;;7.65;2.90;;;;;;;;;;3565232;40;20040;-67
2021/08/22 02:41:12;;;;;;;7.50;2.78;;;17.60;99.90;;;;;;3566839;40;20046;-67
2021/08/22 02:43:38;;;;;;;6.75;2.80;;;;;;;;;;3567327;40;20048;-67
2021/08/22 02:46:04;;;;;;;5.88;3.00;;;;;;;;;;3567654;40;20033;-67
2021/08/22 02:48:30;;;;;;;4.45;2.63;;;;;;;;;;3561399;40;20524;-67
2021/08/22 02:50:56;;;;;;;3.58;2.60;;;;;;;;;;3563928;40;20081;-68
2021/08/22 02:53:22;;;;;;;5.35;3.08;;;;;;;;;;3570800;40;20403;-67
2021/08/22 02:55:48;;;;;;;6.38;3.15;;;;;;;;;;3570093;40;20021;-67
2021/08/22 02:58:14;;;;;;;8.32;2.90;;;;;;;;;;3569157;40;20115;-67
2021/08/22 03:00:40;;;;;;;7.20;3.30;;;;;;;;;;3566463;40;20037;-68
2021/08/22 03:03:06;;;;;;;7.00;3.22;;;;;;;;;;3564676;40;20061;-67
2021/08/22 03:05:32;;;;;;;7.20;2.40;;;;;;;;;;3564849;40;20041;-67
2021/08/22 03:07:58;;;;;;;4.80;3.00;;;;;;;;;;3566693;40;20029;-67
2021/08/22 03:10:24;;;;;;;8.98;3.30;;;;;;;;;;3565023;40;20029;-68
2021/08/22 03:12:50;;;;;;;6.70;2.92;;;;;;;;;;3563863;40;20037;-68
2021/08/22 03:15:16;;;;;;;5.30;2.95;;;;;;;;;;3563016;40;20115;-68
2021/08/22 03:17:42;;;;;;;4.22;2.47;;;;;;;;;;3562659;40;20643;-68
2021/08/22 03:20:08;;;;;;;6.40;2.90;;;;;;;;;;3565306;40;20055;-67
2021/08/22 03:22:34;;;;;;;8.43;3.08;;;;;;;;;;3568096;40;20021;-69
2021/08/22 03:25:00;;;;;;;12.07;3.10;;;;;;;;;;3566399;40;20052;-67
2021/08/22 03:27:26;;;;;;;4.75;2.95;;;;;;;;;;3564849;40;20122;-68
2021/08/22 03:29:52;;;;;;;3.90;3.00;;;;;;;;;;3565203;40;20045;-68
2021/08/22 03:32:18;;;;;;;4.78;3.13;;;;;;;;;;3566702;40;20031;-68
2021/08/22 03:34:44;;;;;;;7.18;3.05;;;;;;;;;;3567016;40;20033;-68
2021/08/22 03:37:10;;;;;;;4.50;2.78;;;;;;;;;;3565986;40;20824;-67
2021/08/22 03:39:36;;;;;;;6.15;3.03;;;;;;;;;;3563679;40;20083;-67
2021/08/22 03:42:02;;;;;;;4.22;3.17;;;;;;;;;;3569466;40;20037;-67
2021/08/22 03:44:28;;;;;;;5.55;3.17;;;;;;;;;;3565918;40;20536;-67
2021/08/22 03:46:54;;;;;;;6.35;2.92;;;;;;;;;;3571116;40;20032;-67
2021/08/22 03:49:20;;;;;;;5.25;2.80;;;;;;;;;;3567746;40;20115;-67
2021/08/22 03:51:46;;;;;;;8.80;3.50;;;;;;;;;;3566076;40;20793;-68
2021/08/22 03:54:12;;;;;;;5.13;3.10;;;;;;;;;;3566793;40;20036;-67
2021/08/22 03:56:39;;;;;;;5.63;2.90;;;;;;;;;;3568330;40;20026;-67
2021/08/22 03:59:07;;;;;;;5.43;2.90;;;16.70;99.90;;;;;;3567050;40;20032;-67
2021/08/22 04:01:34;;;;;;;6.45;3.45;;;;;;;;;;3565675;40;20567;-66
2021/08/22 04:04:07;;;;;;;6.50;3.45;;;;;;;;;;3565840;40;20092;-67
2021/08/22 04:06:39;;;;;;;5.93;2.70;;;;;;;;;;3566413;40;20126;-67
2021/08/22 04:09:07;;;;;;;6.32;3.05;;;;;;;;;;3566274;40;20026;-67
2021/08/22 04:11:33;;;;;;;5.72;3.15;;;;;;;;;;3567928;40;20040;-67
2021/08/22 04:13:59;;;;;;;7.65;3.70;;;;;;;;;;3567848;40;20017;-68
2021/08/22 04:16:25;;;;;;;4.60;2.90;;;;;;;;;;3564349;40;20045;-68
2021/08/22 04:18:51;;;;;;;8.82;3.13;;;;;;;;;;3566711;40;20134;-68
2021/08/22 04:21:17;;;;;;;4.97;2.90;;;;;;;;;;3567522;40;20040;-67
2021/08/22 04:23:43;;;;;;;6.20;3.13;;;;;;;;;;3566191;40;20025;-68
2021/08/22 04:26:09;;;;;;;5.13;3.22;;;;;;;;;;3566619;40;20037;-68
2021/08/22 04:28:35;;;;;;;6.35;3.00;;;;;;;;;;3566891;40;20127;-63
2021/08/22 04:31:00;;;;;;;5.35;3.67;;;;;;;;;;3566631;40;20037;-62
2021/08/22 04:33:28;;;;;;;7.22;3.47;;;;;;;;;;3565416;40;20635;-62
2021/08/22 04:35:54;;;;;;;4.43;2.78;;;;;;;;;;3567587;40;20029;-62
2021/08/22 04:38:20;;;;;;;6.43;3.22;;;;;;;;;;3565631;40;20106;-62
2021/08/22 04:40:46;;;;;;;5.18;2.78;;;;;;;;;;3567790;40;20462;-63
2021/08/22 04:43:12;;;;;;;5.80;3.00;;;;;;;;;;3566989;40;20033;-63
2021/08/22 04:45:38;;;;;;;3.92;2.60;;;;;;;;;;3557668;40;20115;-62
2021/08/22 04:48:04;;;;;;;5.55;2.80;;;;;;;;;;3565816;40;20048;-63
2021/08/22 04:50:30;;;;;;;4.43;2.60;;;;;;;;;;3565590;40;20037;-62
2021/08/22 04:52:56;;;;;;;4.47;2.80;;;;;;;;;;3565449;40;20058;-62
2021/08/22 04:55:22;;;;;;;10.60;3.03;;;;;;;;;;3565882;40;20025;-62
2021/08/22 04:57:48;;;;;;;3.95;2.58;;;;;;;;;;3566390;40;20339;-62
2021/08/22 05:00:14;;;;;;;3.97;2.65;;;;;;;;;;3567047;40;20033;-63
2021/08/22 05:02:40;;;;;;;6.22;3.28;;;;;;;;;;3563657;40;20033;-62
2021/08/22 05:05:06;;;;;;;3.47;2.75;;;;;;;;;;3567214;40;20033;-63
2021/08/22 05:07:32;;;;;;;5.22;2.60;;;;;;;;;;3568396;40;20029;-63
2021/08/22 05:09:58;;;;;;;4.78;2.55;;;;;;;;;;3566645;40;20041;-62
2021/08/22 05:12:24;;;;;;;4.10;2.65;;;;;;;;;;3566599;40;20037;-63
2021/08/22 05:14:50;;;;;;;5.57;2.60;;;;;;;;;;3566193;40;20048;-62
2021/08/22 05:17:16;;;;;;;4.00;2.58;;;;;;;;;;3565386;40;20073;-63
2021/08/22 05:19:42;;;;;;;7.07;3.25;;;;;;;;;;3568243;40;20037;-63
2021/08/22 05:22:08;;;;;;;4.15;2.80;;;;;;;;;;3565633;40;20047;-62
2021/08/22 05:24:34;;;;;;;5.50;2.25;;;;;;;;;;3568278;40;20088;-62
2021/08/22 05:27:00;;;;;;;8.00;3.00;;;;;;;;;;3561701;40;20034;-63
2021/08/22 05:29:27;;;;;;;4.03;2.65;;;;;;;;;;3562489;40;20080;-62
2021/08/22 05:31:53;;;;;;;3.97;2.45;;;;;;;;;;3561853;40;20299;-63
2021/08/22 05:34:19;;;;;;;5.85;2.65;;;;;;;;;;3565458;40;20064;-63
2021/08/22 05:36:45;;;;;;;13.15;3.13;;;;;;;;;;3564231;40;20030;-62
2021/08/22 05:39:11;;;;;;;5.78;2.38;;;;;;;;;;3567640;40;20552;-63
2021/08/22 05:41:37;;;;;;;4.10;2.60;;;;;;;;;;3565494;40;20021;-63
2021/08/22 05:44:03;;;;;;;5.53;2.40;;;;;;;;;;3567411;40;20035;-63
2021/08/22 05:46:29;;;;;;;5.40;2.35;;;;;;;;;;3567068;40;20408;-63
2021/08/22 05:48:55;;;;;;;5.00;2.85;;;;;;;;;;3563356;40;20685;-63
2021/08/22 05:51:21;;;;;;;5.80;2.40;;;;;;;;;;3563174;40;20092;-63
2021/08/22 05:53:47;;;;;;;4.35;2.40;;;;;;;;;;3570281;40;20031;-62
2021/08/22 05:56:13;;;;;;;4.15;2.53;;;;;;;;;;3568103;40;20120;-62
2021/08/22 05:58:39;;;;;;;4.38;2.28;;;;;;;;;;3566430;40;20037;-62
2021/08/22 06:01:05;;;;;;;5.38;2.30;;;;;;;;;;3567536;40;20130;-63
2021/08/22 06:03:31;;;;;;;5.38;2.63;;;;;;;;;;3565689;40;20724;-63
2021/08/22 06:05:57;;;;;;;5.15;2.60;;;;;;;;;;3565504;40;20573;-63
2021/08/22 06:08:23;;;;;;;5.80;2.95;;;;;;;;;;3567219;40;20065;-63
2021/08/22 06:10:49;;;;;;;5.18;2.63;;;;;;;;;;3564523;40;20052;-62
2021/08/22 06:13:15;;;;;;;4.38;2.40;;;;;;;;;;3566447;40;20042;-63
2021/08/22 06:15:41;;;;;;;3.97;2.45;;;;;;;;;;3567378;40;20326;-62
2021/08/22 06:18:07;;;;;;;4.63;2.75;;;;;;;;;;3567845;40;20065;-63
2021/08/22 06:20:33;;;;;;;3.92;2.30;;;;;;;;;;3563140;40;20314;-63
2021/08/22 06:22:59;;;;;;;5.97;2.30;;;;;;;;;;3563489;40;20115;-63
2021/08/22 06:25:25;;;;;;;5.18;2.40;;;;;;;;;;3563482;40;20115;-62
2021/08/22 06:27:51;;;;;;;4.28;3.05;;;;;;;;;;3566652;40;20764;-63
2021/08/22 06:30:17;;;;;;;6.55;2.30;;;;;;;;;;3561937;40;20032;-63
2021/08/22 06:32:43;;;;;;;3.45;2.58;;;;;;;;;;3566372;40;20083;-63
2021/08/22 06:35:09;;;;;;;5.22;2.20;;;;;;;;;;3564650;40;20030;-63
2021/08/22 06:37:35;;;;;;;8.23;2.75;;;;;;;;;;3564342;40;20430;-63
2021/08/22 06:40:02;;;;;;;6.38;2.60;;;;;;;;;;3566803;40;20037;-63
2021/08/22 06:42:28;;;;;;;4.57;2.25;;;;;;;;;;3569854;40;20357;-65
2021/08/22 06:44:54;;;;;;;11.98;2.53;;;;;;;;;;3562892;40;20037;-63
2021/08/22 06:47:20;;;;;;;3.10;2.38;;;;;;;;;;3564708;40;20025;-63
2021/08/22 06:49:46;;;;;;;3.90;2.70;;;;;;;;;;3564797;40;20719;-64
2021/08/22 06:52:12;;;;;;;5.40;2.60;;;;;;;;;;3567319;40;20111;-63
2021/08/22 06:54:41;;;;;;;5.20;2.50;;;;;;;;;;3567567;40;20029;-63
2021/08/22 06:57:08;;;;;;;3.65;2.30;;;;;;;;;;3565734;40;20053;-63
2021/08/22 06:59:34;;;;;;;9.70;4.88;;;;;;;;;;3566426;40;20033;-63
2021/08/22 07:02:00;;;;;;;6.00;3.72;;;;;;;;;;3566938;40;20055;-63
2021/08/22 07:04:26;;;;;;;6.32;2.42;;;;;;;;;;3567591;40;20021;-62
2021/08/22 07:06:52;;;;;;;5.75;3.25;;;;;;;;;;3568734;40;20051;-62
2021/08/22 07:09:17;;;;;;;4.82;2.90;;;;;;;;;;3564127;40;20061;-63
2021/08/22 07:11:44;;;;;;;5.18;3.17;;;;;;;;;;3567518;40;20471;-62
2021/08/22 07:14:10;;;;;;;5.20;2.47;;;;;;;;;;3563917;40;20038;-62
2021/08/22 07:16:37;;;;;;;4.28;2.60;;;;;;;;;;3566458;40;20037;-62
2021/08/22 07:19:03;;;;;;;3.78;2.90;;;;;;;;;;3567103;40;20052;-62
2021/08/22 07:21:29;;;;;;;4.15;2.60;;;;;;;;;;3565291;40;20025;-62
2021/08/22 07:23:55;;;;;;;4.78;2.50;;;;;;;;;;3566094;40;20119;-62
2021/08/22 07:26:22;;;;;;;3.25;2.20;;;;;;;;;;3564994;40;20036;-62
2021/08/22 07:28:48;;;;;;;5.28;2.88;;;;;;;;;;3566381;40;20030;-62
2021/08/22 07:31:15;;;;;;;10.40;3.67;;;;;;;;;;3564676;40;20033;-61
2021/08/22 07:33:41;;;;;;;6.53;3.00;;;;;;;;;;3562424;40;20097;-63
2021/08/22 07:36:07;;;;;;;4.72;2.70;;;;;;;;;;3562604;40;20036;-62
2021/08/22 07:38:33;;;;;;;7.22;3.90;;;;;;;;;;3564915;40;20021;-62
2021/08/22 07:40:59;;;;;;;4.90;2.92;;;;;;;;;;3566058;40;20088;-62
2021/08/22 07:43:25;;;;;;;4.28;2.60;;;;;;;;;;3563752;40;20026;-62
2021/08/22 07:45:51;;;;;;;3.65;2.40;;;;;;;;;;3566650;40;20041;-62
2021/08/22 07:48:17;;;;;;;4.90;2.72;;;;;;;;;;3564191;40;20029;-62
2021/08/22 07:50:43;;;;;;;7.18;2.40;;;;;;;;;;3566356;40;20026;-62
2021/08/22 07:53:09;;;;;;;4.72;2.60;;;;;;;;;;3565322;40;20044;-64
2021/08/22 07:55:35;;;;;;;4.43;2.47;;;;;;;;;;3565543;40;20037;-67
2021/08/22 07:58:01;;;;;;;5.93;2.40;;;;;;;;;;3567830;40;20029;-65
2021/08/22 08:00:27;;;;;;;4.03;2.50;;;;;;;;;;3563906;40;20116;-66
2021/08/22 08:02:53;;;;;;;6.70;2.50;;;;;;;;;;3563262;40;20025;-66
2021/08/22 08:05:19;;;;;;;5.68;2.90;;;;;;;;;;3564399;40;20033;-66
2021/08/22 08:07:45;;;;;;;5.88;2.70;;;;;;;;;;3566812;40;20033;-66
2021/08/22 08:10:11;;;;;;;6.95;2.90;;;;;;;;;;3569742;40;20041;-66
2021/08/22 08:12:37;;;;;;;6.75;4.15;;;;;;;;;;3568834;40;20110;-66
2021/08/22 08:15:03;;;;;;;5.25;2.80;;;;;;;;;;3566339;40;20402;-66
2021/08/22 08:17:29;;;;;;;5.55;2.78;;;;;;;;;;3566615;40;20021;-66
2021/08/22 08:19:55;;;;;;;7.72;3.63;;;;;;;;;;3566748;40;20048;-66
2021/08/22 08:22:23;;;;;;;6.88;2.80;;;;;;;;;;3566160;40;20644;-69
2021/08/22 08:24:49;;;;;;;3.67;2.78;;;;;;;;;;3566180;40;20578;-69
2021/08/22 08:27:15;;;;;;;5.70;2.60;;;;;;;;;;3565065;40;20032;-68
2021/08/22 08:29:41;;;;;;;4.38;2.83;;;;;;;;;;3563542;40;20692;-69
2021/08/22 08:32:07;;;;;;;3.78;2.65;;;;;;;;;;3564772;40;20021;-68
2021/08/22 08:34:33;;;;;;;5.97;2.80;;;;;;;;;;3565862;40;20034;-69
2021/08/22 08:36:59;;;;;;;5.38;2.45;;;;;;;;;;3567395;40;20449;-67
2021/08/22 08:39:25;;;;;;;4.03;2.60;;;;;;;;;;3567513;40;20065;-67
2021/08/22 08:41:51;;;;;;;4.95;2.70;;;;;;;;;;3567695;40;20033;-68
2021/08/22 08:44:17;;;;;;;4.32;2.80;;;;;;;;;;3568336;40;20033;-68
2021/08/22 08:46:43;;;;;;;3.78;2.60;;;;;;;;;;3565780;40;20038;-69
2021/08/22 08:49:09;;;;;;;6.15;2.90;;;;;;;;;;3565413;40;20410;-69
2021/08/22 08:51:35;;;;;;;5.43;2.70;;;;;;;;;;3570484;40;20029;-69
2021/08/22 08:54:01;;;;;;;6.50;2.70;;;;;;;;;;3565989;40;20049;-69
2021/08/22 08:56:27;;;;;;;14.38;3.08;;;;;;;;;;3567326;40;20026;-69
2021/08/22 08:58:53;;;;;;;9.05;3.10;;;;;;;;;;3568638;40;20040;-67
2021/08/22 09:01:19;;;;;;;9.05;3.95;;;;;;;;;;3570327;40;20517;-66
2021/08/22 09:03:45;;;;;;;5.03;2.70;;;;;;;;;;3568992;40;20077;-67
2021/08/22 09:06:11;;;;;;;11.02;3.03;;;;;;;;;;3567494;40;20847;-68
2021/08/22 09:08:37;;;;;;;4.70;2.83;;;;;;;;;;3567636;40;20722;-67
2021/08/22 09:11:03;;;;;;;3.42;2.67;;;;;;;;;;3567804;40;20022;-67
2021/08/22 09:13:29;;;;;;;5.95;2.80;;;;;;;;;;3567281;40;20026;-67
2021/08/22 09:15:55;;;;;;;3.42;2.60;;;;;;;;;;3566496;40;20014;-67
2021/08/22 09:18:21;;;;;;;5.07;2.95;;;;;;;;;;3570225;40;20037;-67
2021/08/22 09:20:47;;;;;;;4.93;3.00;;;;;;;;;;3568120;40;20022;-67
2021/08/22 09:23:13;;;;;;;7.22;2.78;;;;;;;;;;3567483;40;20033;-69
2021/08/22 09:25:39;;;;;;;4.65;3.13;;;;;;;;;;3567574;40;20436;-69
2021/08/22 09:28:04;;;;;;;5.10;2.90;;;;;;;;;;3567617;40;20025;-69
2021/08/22 09:30:30;;;;;;;4.22;2.90;;;;;;;;;;3564272;40;20030;-66
2021/08/22 09:32:56;;;;;;;4.00;2.85;;;;;;;;;;3565015;40;20399;-67
2021/08/22 09:35:22;;;;;;;7.25;2.53;;;;;;;;;;3563726;40;20403;-68
2021/08/22 09:37:49;;;;;;;8.00;2.88;;;;;;;;;;3565958;40;20041;-70
2021/08/22 09:40:15;;;;;;;4.43;2.70;;;;;;;;;;3567987;40;20035;-69
2021/08/22 09:42:41;;;;;;;8.00;3.10;;;;;;;;;;3565308;40;20030;-70
2021/08/22 09:45:07;;;;;;;5.28;2.92;;;;;;;;;;3562438;40;20558;-70
2021/08/22 09:47:40;;;;;;;4.53;2.92;;;;;;;;;;3565857;40;20375;-70
2021/08/22 09:50:07;;;;;;;7.35;4.40;;;;;;;;;;3567676;40;20044;-70
2021/08/22 09:52:35;;;;;;;5.45;3.10;;;;;;;;;;3565187;40;20187;-70
2021/08/22 09:55:01;;;;;;;5.20;3.17;;;;;;;;;;3569144;40;20033;-70
2021/08/22 09:57:27;;;;;;;4.47;2.95;;;;;;;;;;3565434;40;20118;-70
2021/08/22 09:59:53;;;;;;;9.10;3.92;;;;;;;;;;3566926;40;20518;-69
2021/08/22 10:02:19;;;;;;;8.27;3.90;;;;;;;;;;3565704;40;20092;-71
2021/08/22 10:04:45;;;;;;;8.93;4.10;;;;;;;;;;3564921;40;20092;-70
2021/08/22 10:07:11;;;;;;;6.00;3.30;;;;;;;;;;3563507;40;20425;-70
2021/08/22 10:09:37;;;;;;;6.80;3.40;;;;;;;;;;3565543;40;20080;-70
2021/08/22 10:12:03;;;;;;;5.45;3.17;;;;;;;;;;3567304;40;20729;-70
2021/08/22 10:14:29;;;;;;;5.25;3.05;;;;;;;;;;3563002;40;20029;-70
2021/08/22 10:18:58;;;;;;;4.20;3.03;;;;;;;;;;7405986;19;21117;-65
2021/08/22 10:21:24;;;;;;;7.72;3.35;;;;;;;;;;7408377;19;20010;-65
2021/08/22 10:23:52;;;;;;;5.63;3.92;;;;;;;;;;7410389;19;20516;-66
2021/08/22 10:26:18;;;;;;;5.47;3.65;;;;;;;;;;7408105;19;20018;-65
2021/08/22 10:28:44;;;;;;;3.67;3.05;;;;;;;;;;7405849;19;20006;-65
2021/08/22 10:31:10;;;;;;;7.20;4.00;;;;;;;;;;7410071;19;20026;-66
2021/08/22 10:33:36;;;;;;;7.40;3.88;;;;;;;;;;7408182;19;20554;-64
2021/08/22 10:36:02;;;;;;;7.45;4.80;;;;;;;;;;7409653;19;20385;-65
2021/08/22 10:38:28;;;;;;;12.57;5.22;;;;;;;;;;7405707;19;20814;-65
2021/08/22 10:40:54;;;;;;;11.85;6.78;;;;;;;;;;7410067;19;20014;-64
2021/08/22 10:43:20;;;;;;;8.88;6.05;;;;;;;;;;7407143;19;20018;-65
2021/08/22 10:45:46;;;;;;;8.75;5.93;;;;;;;;;;7408777;19;20025;-70
2021/08/22 10:48:12;;;;;;;9.10;6.38;;;;;;;;;;7402674;19;20490;-65
2021/08/22 10:50:38;;;;;;;14.13;5.97;;;;;;;;;;7406111;19;20014;-67
2021/08/22 10:53:04;;;;;;;12.30;6.97;;;;;;;;;;7407638;19;20018;-67
2021/08/22 10:55:31;;;;;;;13.75;6.28;;;;;;;;;;7408658;19;20034;-67
2021/08/22 10:57:57;;;;;;;10.82;6.18;;;;;;;;;;7404459;19;20034;-68
2021/08/22 11:00:23;;;;;;;12.35;6.90;;;;;;;;;;7409158;19;20011;-67
2021/08/22 11:02:49;;;;;;;13.65;8.10;;;;;;;;;;7409418;19;20372;-67
2021/08/22 11:05:16;;;;;;;13.63;8.35;;;;;;;;;;7406349;19;20767;-67
2021/08/22 11:07:42;;;;;;;14.45;7.63;;;;;;;;;;7407675;19;20859;-67
2021/08/22 11:10:08;;;;;;;13.65;8.35;;;;;;;;;;7409005;19;20025;-67
2021/08/22 11:12:34;;;;;;;12.25;7.85;;;;;;;;;;7405994;19;20498;-68
2021/08/22 11:15:00;;;;;;;11.40;7.65;;;;;;;;;;7408599;19;20120;-68
2021/08/22 11:17:27;;;;;;;11.20;7.28;;;;;;;;;;7404349;19;20042;-68
2021/08/22 11:19:53;;;;;;;13.52;7.32;;;;;;;;;;7402019;19;20029;-67
2021/08/22 11:22:19;;;;;;;12.25;7.57;;;;;;;;;;7406730;19;20093;-67
2021/08/22 11:24:45;;;;;;;10.15;7.10;;;;;;;;;;7407056;19;20018;-67
2021/08/22 11:27:11;;;;;;;18.05;7.60;;;;;;;;;;7405347;19;20022;-68
2021/08/22 11:29:37;;;;;;;14.85;8.00;;;;;;;;;;7383943;19;20037;-67
2021/08/22 11:32:02;;;;;;;12.85;7.43;;;18.70;99.90;;;;;;7378399;19;20014;-67
2021/08/22 11:34:28;;;;;;;11.15;7.85;;;;;;;;;;7376709;19;20018;-67
2021/08/22 11:36:54;;;;;;;16.08;7.72;;;;;;;;;;7376519;19;20923;-67
2021/08/22 11:39:21;;;;;;;12.80;8.43;;;;;;;;;;7376372;19;20486;-67
2021/08/22 11:41:47;;;;;;;10.02;7.25;;;;;;;;;;7377047;19;20400;-67
2021/08/22 11:44:13;;;;;;;10.20;7.03;;;;;;;;;;7378134;19;20047;-67
2021/08/22 11:46:39;;;;;;;13.52;7.20;;;;;;;;;;7378030;19;20604;-67
2021/08/22 11:49:05;;;;;;;10.05;7.25;;;;;;;;;;7373100;19;20467;-67
2021/08/22 11:51:31;;;;;;;11.50;6.55;;;;;;;;;;7381499;19;20018;-67
2021/08/22 11:54:01;;;;;;;9.07;6.50;;;;;;;;;;7380038;19;20019;-67
2021/08/22 11:56:26;;;;;;;11.07;5.75;;;;;;;;;;7380120;19;20597;-67
2021/08/22 11:58:53;;;;;;;8.05;5.75;;;;;;;;;;7372156;19;20023;-66
2021/08/22 12:01:20;;;;;;;12.93;6.32;;;;;;;;;;7376624;19;20022;-66
2021/08/22 12:03:46;;;;;;;9.52;5.78;;;;;;;;;;7375637;19;20031;-67
2021/08/22 12:06:12;;;;;;;9.25;5.60;;;;;;;;;;7377154;19;20023;-67
2021/08/22 12:08:38;;;;;;;9.68;5.70;;;;;;;;;;7376153;19;20042;-67
2021/08/22 12:11:05;;;;;;;9.30;5.22;;;;;;;;;;7373635;19;20519;-67
2021/08/22 12:13:31;;;;;;;10.43;5.65;;;;;;;;;;7375595;19;20043;-67
2021/08/22 12:15:59;;;;;;;9.90;6.28;;;;;;;;;;7375587;19;20022;-67
2021/08/22 12:18:25;;;;;;;11.45;5.63;;;;;;;;;;7372836;19;20027;-67
2021/08/22 12:20:51;;;;;;;10.48;5.55;;;;;;;;;;7376193;19;20025;-67
2021/08/22 12:23:17;;;;;;;10.45;6.13;;;;;;;;;;7375740;19;20035;-67
2021/08/22 12:25:43;;;;;;;6.88;4.78;;;;;;;;;;7374984;19;20026;-67
2021/08/22 12:28:09;;;;;;;9.23;5.20;;;;;;;;;;7374782;19;20046;-68
2021/08/22 12:30:35;;;;;;;7.63;4.95;;;;;;;;;;7376308;19;20081;-67
2021/08/22 12:33:01;;;;;;;11.45;6.60;;;;;;;;;;7377574;19;20021;-67
2021/08/22 12:35:27;;;;;;;14.10;5.65;;;;;;;;;;7375023;19;20022;-67
2021/08/22 12:37:53;;;;;;;8.57;5.40;;;;;;;;;;7373608;19;20245;-67
2021/08/22 12:40:19;;;;;;;13.70;5.90;;;;;;;;;;7372492;19;20090;-67
2021/08/22 12:42:45;;;;;;;9.00;6.10;;;;;;;;;;7376683;19;20351;-67
2021/08/22 12:45:12;;;;;;;7.65;5.00;;;;;;;;;;7374933;19;20900;-67
2021/08/22 12:47:38;;;;;;;10.23;6.18;;;;;;;;;;7371138;19;20018;-67
2021/08/22 12:50:04;;;;;;;10.32;5.35;;;;;;;;;;7374295;19;20107;-67
2021/08/22 12:52:30;;;;;;;6.35;4.68;;;;;;;;;;7375591;19;20775;-67
2021/08/22 12:54:56;;;;;;;11.85;5.28;;;;;;;;;;7376132;19;20380;-67
2021/08/22 12:57:22;;;;;;;8.32;5.18;;;;;;;;;;7374998;19;20022;-67
2021/08/22 12:59:48;;;;;;;10.23;5.60;;;;;;;;;;7374282;19;20025;-67
2021/08/22 13:02:14;;;;;;;8.15;5.38;;;;;;;;;;7377081;19;20090;-67
2021/08/22 13:04:41;;;;;;;9.18;5.70;;;;;;;;;;7374816;19;20018;-67
2021/08/22 13:07:06;;;;;;;10.98;5.00;;;;;;;;;;7374110;19;20029;-66
2021/08/22 13:09:33;;;;;;;11.90;5.68;;;;;;;;;;7370732;19;20034;-67
2021/08/22 13:11:59;;;;;;;9.73;4.80;;;;;;;;;;7374936;19;20085;-67
2021/08/22 13:14:25;;;;;;;6.22;4.43;;;;;;;;;;7375833;19;20068;-67
2021/08/22 13:16:51;;;;;;;7.00;4.97;;;;;;;;;;7373519;19;20017;-67
2021/08/22 13:19:17;;;;;;;10.00;5.30;;;;;;;;;;7373662;19;20026;-67
2021/08/22 13:21:43;;;;;;;8.15;5.15;;;;;;;;;;7376572;19;20014;-67
2021/08/22 13:24:09;;;;;;;10.57;5.20;;;;;;;;;;7373920;19;20236;-67
2021/08/22 13:26:38;;;;;;;11.30;5.95;;;;;;;;;;7376512;19;20011;-67
2021/08/22 13:29:04;;;;;;;8.60;5.38;;;;;;;;;;7372970;19;20018;-67
2021/08/22 13:31:30;;;;;;;12.35;5.63;;;;;;;;;;7372963;19;20015;-67
2021/08/22 13:33:56;;;;;;;10.43;4.93;;;;;;;;;;7375026;19;20040;-67
2021/08/22 13:36:22;;;;;;;9.07;5.43;;;;;;;;;;7373722;19;20490;-61
2021/08/22 13:38:48;;;;;;;11.88;4.85;;;;;;;;;;7369314;19;20011;-61
2021/08/22 13:41:14;;;;;;;14.10;5.35;;;;;;;;;;7376946;19;20023;-61
2021/08/22 13:43:40;;;;;;;10.27;5.28;;;;;;;;;;7375003;19;20014;-61
2021/08/22 13:46:06;;;;;;;15.27;8.77;;;;;;;;;;7372243;19;20048;-61
2021/08/22 13:48:32;;;;;;;8.27;5.38;;;;;;;;;;7371671;19;20378;-61
2021/08/22 13:50:58;;;;;;;17.00;5.60;;;;;;;;;;7373699;19;20021;-61
2021/08/22 13:53:24;;;;;;;12.65;5.63;;;;;;;;;;7372418;19;20088;-61
2021/08/22 13:55:50;;;;;;;10.40;5.20;;;;;;;;;;7372085;19;20098;-61
2021/08/22 13:58:16;;;;;;;8.63;4.82;;;;;;;;;;7371956;19;20490;-61
2021/08/22 14:00:42;;;;;;;6.43;4.20;;;;;;;;;;7371218;19;20041;-61
2021/08/22 14:03:08;;;;;;;11.18;5.38;;;;;;;;;;7373688;19;20022;-61
2021/08/22 14:05:36;;;;;;;9.25;5.35;;;;;;;;;;7373635;19;20021;-61
2021/08/22 14:08:01;;;;;;;8.45;5.85;;;;;;;;;;7371432;19;20134;-61
2021/08/22 14:10:27;;;;;;;7.63;4.63;;;;;;;;;;7372948;19;20039;-61
2021/08/22 14:12:53;;;;;;;7.00;4.72;;;;;;;;;;7372614;19;20015;-62
2021/08/22 14:15:20;;;;;;;9.75;5.97;;;;;;;;;;7371905;19;20768;-61
2021/08/22 14:17:46;;;;;;;9.48;5.40;;;;;;;;;;7370403;19;20041;-67
2021/08/22 14:20:12;;;;;;;12.40;6.57;;;;;;;;;;7373380;19;20766;-67
2021/08/22 14:22:38;;;;;;;7.72;4.63;;;;;;;;;;7375449;19;20019;-67
2021/08/22 14:25:04;;;;;;;14.10;4.82;;;;;;;;;;7373699;19;20021;-70
2021/08/22 14:27:29;;;;;;;14.13;5.15;;;21.30;99.90;;;;;;7373105;19;20590;-67
2021/08/22 14:29:55;;;;;;;7.57;4.38;;;;;;;;;;7372574;19;20820;-65
2021/08/22 14:32:21;;;;;;;10.55;5.03;;;;;;;;;;7372880;19;20019;-66